createdAt,value
2018-07-03T00:00:55.330Z,19.82
2018-07-03T00:01:55.534Z,19.78
2018-07-03T00:02:57.215Z,19.55
2018-07-03T00:03:54.648Z,19.43
2018-07-03T00:04:55.434Z,19.50
2018-07-03T00:05:55.891Z,19.42
2018-07-03T00:06:55.405Z,19.55
2018-07-03T00:07:54.769Z,19.52
2018-07-03T00:08:54.635Z,19.52
2018-07-03T00:09:55.396Z,19.39
2018-07-03T00:10:55.380Z,19.38
2018-07-03T00:11:57.207Z,19.47
2018-07-03T00:12:55.381Z,19.40
2018-07-03T00:13:54.653Z,19.49
2018-07-03T00:14:55.390Z,19.47
2018-07-03T00:15:55.379Z,19.43
2018-07-03T00:16:55.383Z,19.40
2018-07-03T00:17:55.384Z,19.38
2018-07-03T00:18:54.658Z,19.45
2018-07-03T00:19:54.647Z,19.39
2018-07-03T00:20:55.465Z,19.24
2018-07-03T00:21:55.460Z,19.30
2018-07-03T00:22:55.414Z,19.25
2018-07-03T00:23:54.658Z,19.31
2018-07-03T00:24:55.646Z,19.23
2018-07-03T00:25:55.394Z,19.27
2018-07-03T00:26:55.359Z,19.20
2018-07-03T00:27:55.594Z,19.30
2018-07-03T00:28:54.656Z,19.27
2018-07-03T00:29:55.409Z,19.17
2018-07-03T00:30:55.434Z,19.16
2018-07-03T00:31:55.396Z,19.13
2018-07-03T00:32:55.367Z,19.12
2018-07-03T00:33:54.679Z,19.09
2018-07-03T00:34:55.397Z,19.10
2018-07-03T00:35:55.435Z,19.10
2018-07-03T00:36:55.435Z,18.99
2018-07-03T00:37:55.377Z,18.99
2018-07-03T00:38:54.674Z,18.90
2018-07-03T00:39:55.433Z,18.93
2018-07-03T00:40:55.371Z,18.90
2018-07-03T00:41:55.401Z,19.05
2018-07-03T00:42:55.362Z,18.97
2018-07-03T00:43:54.686Z,19.12
2018-07-03T00:44:55.419Z,18.97
2018-07-03T00:45:55.359Z,18.87
2018-07-03T00:46:55.462Z,18.89
2018-07-03T00:47:55.459Z,18.84
2018-07-03T00:48:54.668Z,18.79
2018-07-03T00:49:55.511Z,18.84
2018-07-03T00:50:55.483Z,18.76
2018-07-03T00:51:57.343Z,18.76
2018-07-03T00:52:55.409Z,18.66
2018-07-03T00:53:54.678Z,18.68
2018-07-03T00:54:55.375Z,18.75
2018-07-03T00:55:55.439Z,18.62
2018-07-03T00:56:55.383Z,18.86
2018-07-03T00:57:55.418Z,18.82
2018-07-03T00:58:54.745Z,18.71
2018-07-03T00:59:55.404Z,18.76
2018-07-03T01:00:55.382Z,18.79
2018-07-03T01:01:55.421Z,18.83
2018-07-03T01:02:55.369Z,18.69
2018-07-03T01:03:54.683Z,18.74
2018-07-03T01:04:55.455Z,18.51
2018-07-03T01:05:55.410Z,18.56
2018-07-03T01:06:54.684Z,18.62
2018-07-03T01:07:55.448Z,18.75
2018-07-03T01:08:54.686Z,18.78
2018-07-03T01:09:55.448Z,18.74
2018-07-03T01:10:55.464Z,18.60
2018-07-03T01:11:55.393Z,18.59
2018-07-03T01:12:55.399Z,18.59
2018-07-03T01:13:54.674Z,18.60
2018-07-03T01:14:55.354Z,18.59
2018-07-03T01:15:55.445Z,18.50
2018-07-03T01:16:55.368Z,18.60
2018-07-03T01:17:55.348Z,18.46
2018-07-03T01:18:55.366Z,18.44
2018-07-03T01:19:55.466Z,18.38
2018-07-03T01:20:55.373Z,18.32
2018-07-03T01:21:55.375Z,18.31
2018-07-03T01:22:55.455Z,18.29
2018-07-03T01:23:54.695Z,18.31
2018-07-03T01:24:54.738Z,18.39
2018-07-03T01:25:55.433Z,18.35
2018-07-03T01:26:55.433Z,18.47
2018-07-03T01:27:55.471Z,18.50
2018-07-03T01:28:54.693Z,18.42
2018-07-03T01:29:55.469Z,18.39
2018-07-03T01:30:55.484Z,18.26
2018-07-03T01:31:56.056Z,18.35
2018-07-03T01:32:55.475Z,18.29
2018-07-03T01:33:54.719Z,18.31
2018-07-03T01:34:55.426Z,18.26
2018-07-03T01:35:55.471Z,18.32
2018-07-03T01:36:55.466Z,18.42
2018-07-03T01:37:54.742Z,18.39
2018-07-03T01:38:54.725Z,18.35
2018-07-03T01:39:55.467Z,18.31
2018-07-03T01:40:55.454Z,18.29
2018-07-03T01:41:55.446Z,18.17
2018-07-03T01:42:55.394Z,18.20
2018-07-03T01:43:54.704Z,18.32
2018-07-03T01:44:55.409Z,18.32
2018-07-03T01:45:55.395Z,18.26
2018-07-03T01:46:55.375Z,18.28
2018-07-03T01:47:55.399Z,18.34
2018-07-03T01:48:54.690Z,18.14
2018-07-03T01:49:55.457Z,18.14
2018-07-03T01:50:55.396Z,18.13
2018-07-03T01:51:55.440Z,18.04
2018-07-03T01:52:55.455Z,18.11
2018-07-03T01:53:54.777Z,18.10
2018-07-03T01:54:55.456Z,17.96
2018-07-03T01:55:55.401Z,18.02
2018-07-03T01:56:55.424Z,18.07
2018-07-03T01:57:54.764Z,17.95
2018-07-03T01:58:54.706Z,17.92
2018-07-03T01:59:55.453Z,17.99
2018-07-03T02:00:56.369Z,18.10
2018-07-03T02:01:55.751Z,18.14
2018-07-03T02:02:56.426Z,18.02
2018-07-03T02:03:56.382Z,18.02
2018-07-03T02:04:55.862Z,17.96
2018-07-03T02:05:56.473Z,17.95
2018-07-03T02:06:56.472Z,18.01
2018-07-03T02:07:55.802Z,17.98
2018-07-03T02:08:56.326Z,18.01
2018-07-03T02:09:56.420Z,17.81
2018-07-03T02:10:55.728Z,17.79
2018-07-03T02:11:56.376Z,17.63
2018-07-03T02:12:56.399Z,17.71
2018-07-03T02:13:55.793Z,17.68
2018-07-03T02:14:56.422Z,17.70
2018-07-03T02:15:56.357Z,17.63
2018-07-03T02:16:55.766Z,17.74
2018-07-03T02:17:56.338Z,17.84
2018-07-03T02:18:56.386Z,17.87
2018-07-03T02:19:55.836Z,17.77
2018-07-03T02:20:56.392Z,17.63
2018-07-03T02:21:56.351Z,17.68
2018-07-03T02:22:55.743Z,17.62
2018-07-03T02:23:56.441Z,17.70
2018-07-03T02:24:56.433Z,17.71
2018-07-03T02:25:55.775Z,17.74
2018-07-03T02:26:56.374Z,17.76
2018-07-03T02:27:56.437Z,17.54
2018-07-03T02:28:55.882Z,17.58
2018-07-03T02:29:56.513Z,17.54
2018-07-03T02:30:56.430Z,17.46
2018-07-03T02:31:58.604Z,17.53
2018-07-03T02:32:56.436Z,17.58
2018-07-03T02:33:56.367Z,17.53
2018-07-03T02:34:56.296Z,17.60
2018-07-03T02:35:56.395Z,17.53
2018-07-03T02:36:56.394Z,17.51
2018-07-03T02:37:56.408Z,17.57
2018-07-03T02:38:56.418Z,17.53
2018-07-03T02:39:56.423Z,17.49
2018-07-03T02:40:56.406Z,17.46
2018-07-03T02:41:56.359Z,17.54
2018-07-03T02:42:56.427Z,17.45
2018-07-03T02:43:56.404Z,17.49
2018-07-03T02:44:56.406Z,17.47
2018-07-03T02:45:56.402Z,17.47
2018-07-03T02:46:56.441Z,17.49
2018-07-03T02:47:56.408Z,17.39
2018-07-03T02:48:56.369Z,17.46
2018-07-03T02:49:56.400Z,17.51
2018-07-03T02:50:56.504Z,17.54
2018-07-03T02:51:56.386Z,17.45
2018-07-03T02:52:56.361Z,17.53
2018-07-03T02:53:56.405Z,17.51
2018-07-03T02:54:56.489Z,17.43
2018-07-03T02:55:56.463Z,17.36
2018-07-03T02:56:56.426Z,17.39
2018-07-03T02:57:56.429Z,17.39
2018-07-03T02:58:56.416Z,17.38
2018-07-03T02:59:56.420Z,17.38
2018-07-03T03:00:56.438Z,17.21
2018-07-03T03:01:56.375Z,17.22
2018-07-03T03:02:56.343Z,17.24
2018-07-03T03:03:56.425Z,17.18
2018-07-03T03:04:56.425Z,17.30
2018-07-03T03:05:56.410Z,17.24
2018-07-03T03:06:56.368Z,17.28
2018-07-03T03:07:56.355Z,17.24
2018-07-03T03:08:56.405Z,17.38
2018-07-03T03:09:56.440Z,17.12
2018-07-03T03:10:56.450Z,17.14
2018-07-03T03:11:56.395Z,17.21
2018-07-03T03:12:56.399Z,17.21
2018-07-03T03:13:56.420Z,17.14
2018-07-03T03:14:56.417Z,17.18
2018-07-03T03:15:56.420Z,17.21
2018-07-03T03:16:56.167Z,17.27
2018-07-03T03:17:56.219Z,17.18
2018-07-03T03:18:56.228Z,17.24
2018-07-03T03:19:56.230Z,17.21
2018-07-03T03:20:56.198Z,17.22
2018-07-03T03:21:56.282Z,17.21
2018-07-03T03:22:56.162Z,17.15
2018-07-03T03:23:56.192Z,17.12
2018-07-03T03:24:56.218Z,17.09
2018-07-03T03:25:56.038Z,17.14
2018-07-03T03:26:56.057Z,17.12
2018-07-03T03:27:56.135Z,17.09
2018-07-03T03:28:56.068Z,17.09
2018-07-03T03:29:56.160Z,17.05
2018-07-03T03:30:56.108Z,16.96
2018-07-03T03:31:56.089Z,17.00
2018-07-03T03:32:56.185Z,17.00
2018-07-03T03:33:56.161Z,17.00
2018-07-03T03:34:56.608Z,16.98
2018-07-03T03:35:56.254Z,17.00
2018-07-03T03:36:56.193Z,16.82
2018-07-03T03:37:56.189Z,17.00
2018-07-03T03:38:56.243Z,17.03
2018-07-03T03:39:56.462Z,16.88
2018-07-03T03:40:56.229Z,16.88
2018-07-03T03:41:57.969Z,16.96
2018-07-03T03:42:56.158Z,17.02
2018-07-03T03:43:56.206Z,17.05
2018-07-03T03:44:56.261Z,16.88
2018-07-03T03:45:56.212Z,16.92
2018-07-03T03:46:56.597Z,16.98
2018-07-03T03:47:56.297Z,16.91
2018-07-03T03:48:58.608Z,16.90
2018-07-03T03:49:56.223Z,16.87
2018-07-03T03:50:56.158Z,16.99
2018-07-03T03:51:56.078Z,16.98
2018-07-03T03:52:56.188Z,16.88
2018-07-03T03:53:56.070Z,16.78
2018-07-03T03:54:56.173Z,16.72
2018-07-03T03:55:56.235Z,16.90
2018-07-03T03:56:56.456Z,16.91
2018-07-03T03:57:56.067Z,16.82
2018-07-03T03:58:56.103Z,16.88
2018-07-03T03:59:56.202Z,16.85
2018-07-03T04:00:56.266Z,16.88
2018-07-03T04:01:56.148Z,16.88
2018-07-03T04:02:56.168Z,16.98
2018-07-03T04:03:56.189Z,16.90
2018-07-03T04:04:56.214Z,16.72
2018-07-03T04:05:56.212Z,16.77
2018-07-03T04:06:56.205Z,16.80
2018-07-03T04:07:56.331Z,16.84
2018-07-03T04:08:56.256Z,16.92
2018-07-03T04:09:56.233Z,16.88
2018-07-03T04:10:56.270Z,16.92
2018-07-03T04:11:56.622Z,16.88
2018-07-03T04:12:56.338Z,17.00
2018-07-03T04:13:58.046Z,16.88
2018-07-03T04:14:56.207Z,16.82
2018-07-03T04:15:56.283Z,16.87
2018-07-03T04:16:56.077Z,16.88
2018-07-03T04:17:55.712Z,16.87
2018-07-03T04:18:56.226Z,16.88
2018-07-03T04:19:56.183Z,16.99
2018-07-03T04:20:56.070Z,17.00
2018-07-03T04:21:56.075Z,16.95
2018-07-03T04:22:56.138Z,16.91
2018-07-03T04:23:56.079Z,16.90
2018-07-03T04:24:56.163Z,16.92
2018-07-03T04:25:56.164Z,16.67
2018-07-03T04:26:56.241Z,16.73
2018-07-03T04:27:56.180Z,16.87
2018-07-03T04:28:56.172Z,16.92
2018-07-03T04:29:56.287Z,16.95
2018-07-03T04:30:58.091Z,16.98
2018-07-03T04:31:58.139Z,17.05
2018-07-03T04:32:56.172Z,16.88
2018-07-03T04:33:56.176Z,17.02
2018-07-03T04:34:56.241Z,17.05
2018-07-03T04:35:58.182Z,17.17
2018-07-03T04:36:57.989Z,17.14
2018-07-03T04:37:56.327Z,17.18
2018-07-03T04:38:56.252Z,17.18
2018-07-03T04:39:56.227Z,17.12
2018-07-03T04:40:56.256Z,17.20
2018-07-03T04:41:56.159Z,17.22
2018-07-03T04:42:56.170Z,17.25
2018-07-03T04:43:56.208Z,17.25
2018-07-03T04:44:56.041Z,17.18
2018-07-03T04:45:56.112Z,17.22
2018-07-03T04:46:56.194Z,17.18
2018-07-03T04:47:56.120Z,17.20
2018-07-03T04:48:56.176Z,17.24
2018-07-03T04:49:56.052Z,17.24
2018-07-03T04:50:56.052Z,17.28
2018-07-03T04:51:56.240Z,17.21
2018-07-03T04:52:56.065Z,17.24
2018-07-03T04:53:56.067Z,17.21
2018-07-03T04:54:56.099Z,17.21
2018-07-03T04:55:56.179Z,17.21
2018-07-03T04:56:56.254Z,17.20
2018-07-03T04:57:56.676Z,17.24
2018-07-03T04:58:56.376Z,17.24
2018-07-03T04:59:56.267Z,17.25
2018-07-03T05:00:57.904Z,17.32
2018-07-03T05:01:56.657Z,17.38
2018-07-03T05:02:56.255Z,17.38
2018-07-03T05:03:56.094Z,17.40
2018-07-03T05:04:56.009Z,17.42
2018-07-03T05:05:55.999Z,17.53
2018-07-03T05:06:56.023Z,17.42
2018-07-03T05:07:55.941Z,17.54
2018-07-03T05:08:55.889Z,17.57
2018-07-03T05:09:56.057Z,17.58
2018-07-03T05:10:55.948Z,17.57
2018-07-03T05:11:56.039Z,17.51
2018-07-03T05:12:56.051Z,17.57
2018-07-03T05:13:56.025Z,17.53
2018-07-03T05:14:56.035Z,17.68
2018-07-03T05:15:56.143Z,17.63
2018-07-03T05:16:56.379Z,17.62
2018-07-03T05:17:56.041Z,17.63
2018-07-03T05:18:56.051Z,17.79
2018-07-03T05:19:56.096Z,17.76
2018-07-03T05:20:56.569Z,17.74
2018-07-03T05:21:55.973Z,17.68
2018-07-03T05:22:56.482Z,17.70
2018-07-03T05:23:58.800Z,17.81
2018-07-03T05:24:56.580Z,17.95
2018-07-03T05:25:56.104Z,17.95
2018-07-03T05:26:56.090Z,17.99
2018-07-03T05:27:56.808Z,18.01
2018-07-03T05:28:56.043Z,18.04
2018-07-03T05:29:56.001Z,17.98
2018-07-03T05:30:56.158Z,18.14
2018-07-03T05:31:56.063Z,18.17
2018-07-03T05:32:56.170Z,18.14
2018-07-03T05:33:55.929Z,18.07
2018-07-03T05:34:56.081Z,18.01
2018-07-03T05:35:56.189Z,18.13
2018-07-03T05:36:56.105Z,18.10
2018-07-03T05:37:56.085Z,18.10
2018-07-03T05:38:56.018Z,18.19
2018-07-03T05:39:55.981Z,18.19
2018-07-03T05:40:56.031Z,18.28
2018-07-03T05:41:56.027Z,18.34
2018-07-03T05:42:56.733Z,18.32
2018-07-03T05:43:55.974Z,18.31
2018-07-03T05:44:55.996Z,18.38
2018-07-03T05:45:56.233Z,18.42
2018-07-03T05:46:55.987Z,18.38
2018-07-03T05:47:56.073Z,18.49
2018-07-03T05:48:56.487Z,18.39
2018-07-03T05:49:56.043Z,18.42
2018-07-03T05:50:56.079Z,18.42
2018-07-03T05:51:56.068Z,18.49
2018-07-03T05:52:56.608Z,18.51
2018-07-03T05:53:56.093Z,18.50
2018-07-03T05:54:56.111Z,18.53
2018-07-03T05:55:56.534Z,18.51
2018-07-03T05:56:56.674Z,18.57
2018-07-03T05:57:56.477Z,18.62
2018-07-03T05:58:56.142Z,18.66
2018-07-03T05:59:56.201Z,18.62
2018-07-03T06:00:56.570Z,18.65
2018-07-03T06:01:55.962Z,18.66
2018-07-03T06:02:56.204Z,18.76
2018-07-03T06:03:55.989Z,18.93
2018-07-03T06:04:56.240Z,18.96
2018-07-03T06:05:55.646Z,19.02
2018-07-03T06:06:56.504Z,18.99
2018-07-03T06:07:56.514Z,18.91
2018-07-03T06:08:56.050Z,18.93
2018-07-03T06:10:55.663Z,18.94
2018-07-03T06:11:56.193Z,18.93
2018-07-03T06:12:57.748Z,18.96
2018-07-03T06:13:56.049Z,18.90
2018-07-03T06:14:55.823Z,19.02
2018-07-03T06:15:56.060Z,19.01
2018-07-03T06:16:55.994Z,19.07
2018-07-03T06:17:56.040Z,19.10
2018-07-03T06:18:55.931Z,19.09
2018-07-03T06:19:56.196Z,19.21
2018-07-03T06:20:55.991Z,19.21
2018-07-03T06:21:56.377Z,19.30
2018-07-03T06:22:56.219Z,19.46
2018-07-03T06:23:56.106Z,19.60
2018-07-03T06:24:56.201Z,19.57
2018-07-03T06:25:55.938Z,19.57
2018-07-03T06:26:56.455Z,19.53
2018-07-03T06:27:56.495Z,19.47
2018-07-03T06:28:56.106Z,19.50
2018-07-03T06:29:56.107Z,19.53
2018-07-03T06:30:57.492Z,19.43
2018-07-03T06:31:55.974Z,19.57
2018-07-03T06:32:58.203Z,19.49
2018-07-03T06:33:55.952Z,19.53
2018-07-03T06:34:56.319Z,19.58
2018-07-03T06:35:57.000Z,19.64
2018-07-03T06:36:56.134Z,19.61
2018-07-03T06:37:57.907Z,19.68
2018-07-03T06:38:55.704Z,19.80
2018-07-03T06:39:56.123Z,19.79
2018-07-03T06:40:56.246Z,19.83
2018-07-03T06:41:56.127Z,19.79
2018-07-03T06:42:56.508Z,19.85
2018-07-03T06:43:55.804Z,19.79
2018-07-03T06:44:56.308Z,19.98
2018-07-03T06:45:56.182Z,19.90
2018-07-03T06:46:56.403Z,19.90
2018-07-03T06:47:56.432Z,19.98
2018-07-03T06:48:56.413Z,19.94
2018-07-03T06:49:56.713Z,20.01
2018-07-03T06:50:56.713Z,19.98
2018-07-03T06:51:56.279Z,19.95
2018-07-03T06:52:55.888Z,19.90
2018-07-03T06:53:56.221Z,20.01
2018-07-03T06:54:56.210Z,20.01
2018-07-03T06:55:56.561Z,20.02
2018-07-03T06:56:55.895Z,20.08
2018-07-03T06:57:55.834Z,20.13
2018-07-03T06:58:56.308Z,20.25
2018-07-03T06:59:56.710Z,20.37
2018-07-03T07:00:56.211Z,20.30
2018-07-03T07:01:56.715Z,20.33
2018-07-03T07:02:55.934Z,20.27
2018-07-03T07:03:56.712Z,20.34
2018-07-03T07:04:56.526Z,20.34
2018-07-03T07:05:56.216Z,20.42
2018-07-03T07:06:55.926Z,20.41
2018-07-03T07:07:56.526Z,20.46
2018-07-03T07:08:56.346Z,20.41
2018-07-03T07:09:56.332Z,20.51
2018-07-03T07:10:56.348Z,20.56
2018-07-03T07:11:56.335Z,20.63
2018-07-03T07:12:56.283Z,20.53
2018-07-03T07:13:56.286Z,20.72
2018-07-03T07:14:56.340Z,20.57
2018-07-03T07:15:57.225Z,20.51
2018-07-03T07:16:56.184Z,20.58
2018-07-03T07:17:56.847Z,20.68
2018-07-03T07:18:55.904Z,20.64
2018-07-03T07:19:56.619Z,20.76
2018-07-03T07:20:56.258Z,20.85
2018-07-03T07:21:56.727Z,20.83
2018-07-03T07:22:56.171Z,20.76
2018-07-03T07:23:58.255Z,20.83
2018-07-03T07:24:56.313Z,20.78
2018-07-03T07:25:56.723Z,20.85
2018-07-03T07:26:56.278Z,20.87
2018-07-03T07:27:56.352Z,20.93
2018-07-03T07:28:56.720Z,20.97
2018-07-03T07:29:55.906Z,21.08
2018-07-03T07:30:56.436Z,21.01
2018-07-03T07:31:56.311Z,21.16
2018-07-03T07:32:56.723Z,21.24
2018-07-03T07:33:56.439Z,21.22
2018-07-03T07:34:56.229Z,21.24
2018-07-03T07:35:56.253Z,21.27
2018-07-03T07:36:56.323Z,21.21
2018-07-03T07:37:56.226Z,21.31
2018-07-03T07:38:56.230Z,21.30
2018-07-03T07:39:56.301Z,21.28
2018-07-03T07:40:58.822Z,21.24
2018-07-03T07:41:57.106Z,21.38
2018-07-03T07:42:57.354Z,21.36
2018-07-03T07:43:57.058Z,21.46
2018-07-03T07:44:56.090Z,21.55
2018-07-03T07:45:56.369Z,21.53
2018-07-03T07:46:57.040Z,21.66
2018-07-03T07:47:56.814Z,21.61
2018-07-03T07:48:55.729Z,21.59
2018-07-03T07:49:56.145Z,21.59
2018-07-03T07:50:56.717Z,21.64
2018-07-03T07:51:55.746Z,21.73
2018-07-03T07:52:56.448Z,21.71
2018-07-03T07:53:55.938Z,21.67
2018-07-03T07:54:56.405Z,21.59
2018-07-03T07:55:56.726Z,21.74
2018-07-03T07:56:56.187Z,21.73
2018-07-03T07:57:58.428Z,21.77
2018-07-03T07:58:56.231Z,21.82
2018-07-03T07:59:56.632Z,21.96
2018-07-03T08:00:58.334Z,22.05
2018-07-03T08:01:56.327Z,22.08
2018-07-03T08:02:56.733Z,22.02
2018-07-03T08:03:56.866Z,22.02
2018-07-03T08:04:56.277Z,22.08
2018-07-03T08:05:56.718Z,22.08
2018-07-03T08:06:56.301Z,22.05
2018-07-03T08:07:56.500Z,21.99
2018-07-03T08:08:55.787Z,22.15
2018-07-03T08:09:56.595Z,22.23
2018-07-03T08:10:58.304Z,22.29
2018-07-03T08:11:56.261Z,22.14
2018-07-03T08:12:56.482Z,22.24
2018-07-03T08:13:56.567Z,22.23
2018-07-03T08:14:58.275Z,22.31
2018-07-03T08:15:56.476Z,22.48
2018-07-03T08:16:56.378Z,22.59
2018-07-03T08:17:56.297Z,22.54
2018-07-03T08:18:56.739Z,22.41
2018-07-03T08:19:56.752Z,22.36
2018-07-03T08:20:56.360Z,22.44
2018-07-03T08:21:56.744Z,22.44
2018-07-03T08:22:56.304Z,22.51
2018-07-03T08:23:56.262Z,22.49
2018-07-03T08:24:57.031Z,22.66
2018-07-03T08:25:56.499Z,22.78
2018-07-03T08:26:56.226Z,22.76
2018-07-03T08:27:56.389Z,22.79
2018-07-03T08:28:56.440Z,22.75
2018-07-03T08:29:56.503Z,22.89
2018-07-03T08:30:56.747Z,22.97
2018-07-03T08:31:56.418Z,22.88
2018-07-03T08:32:56.452Z,22.81
2018-07-03T08:33:56.146Z,22.84
2018-07-03T08:34:58.710Z,22.86
2018-07-03T08:35:55.888Z,22.78
2018-07-03T08:36:56.731Z,22.89
2018-07-03T08:37:56.819Z,22.84
2018-07-03T08:38:56.744Z,22.86
2018-07-03T08:39:57.538Z,22.96
2018-07-03T08:40:56.430Z,23.06
2018-07-03T08:41:56.313Z,23.04
2018-07-03T08:42:56.421Z,23.14
2018-07-03T08:43:56.328Z,23.22
2018-07-03T08:44:58.860Z,23.19
2018-07-03T08:45:56.754Z,23.12
2018-07-03T08:46:56.253Z,23.12
2018-07-03T08:47:56.521Z,23.11
2018-07-03T08:48:56.399Z,23.11
2018-07-03T08:49:56.351Z,23.14
2018-07-03T08:50:56.362Z,23.14
2018-07-03T08:51:56.434Z,23.21
2018-07-03T08:52:56.304Z,23.26
2018-07-03T08:53:56.383Z,23.32
2018-07-03T08:54:56.367Z,23.53
2018-07-03T08:55:56.729Z,23.54
2018-07-03T08:56:56.803Z,23.53
2018-07-03T08:57:56.253Z,23.45
2018-07-03T08:58:56.023Z,23.41
2018-07-03T08:59:56.759Z,23.47
2018-07-03T09:00:56.297Z,23.45
2018-07-03T09:01:56.579Z,23.47
2018-07-03T09:02:56.590Z,23.60
2018-07-03T09:03:56.592Z,23.67
2018-07-03T09:04:56.826Z,23.64
2018-07-03T09:05:56.795Z,23.67
2018-07-03T09:06:57.437Z,23.45
2018-07-03T09:07:56.153Z,23.49
2018-07-03T09:08:56.005Z,23.53
2018-07-03T09:09:57.067Z,23.69
2018-07-03T09:10:56.554Z,23.74
2018-07-03T09:11:57.042Z,23.63
2018-07-03T09:12:56.057Z,23.81
2018-07-03T09:13:57.250Z,23.89
2018-07-03T09:14:57.071Z,23.90
2018-07-03T09:15:56.543Z,23.97
2018-07-03T09:16:56.743Z,24.04
2018-07-03T09:17:56.861Z,24.04
2018-07-03T09:18:57.066Z,24.23
2018-07-03T09:19:56.287Z,24.24
2018-07-03T09:20:56.726Z,24.15
2018-07-03T09:21:57.130Z,24.15
2018-07-03T09:22:57.045Z,24.24
2018-07-03T09:23:56.003Z,24.27
2018-07-03T09:24:56.630Z,24.31
2018-07-03T09:25:57.254Z,24.21
2018-07-03T09:26:56.621Z,24.18
2018-07-03T09:27:56.584Z,24.05
2018-07-03T09:28:56.533Z,23.93
2018-07-03T09:29:56.528Z,24.04
2018-07-03T09:30:57.491Z,24.06
2018-07-03T09:31:57.051Z,24.16
2018-07-03T09:32:56.615Z,24.14
2018-07-03T09:33:56.834Z,24.24
2018-07-03T09:34:56.016Z,24.33
2018-07-03T09:35:57.069Z,24.48
2018-07-03T09:36:56.815Z,24.49
2018-07-03T09:37:57.057Z,24.24
2018-07-03T09:38:56.643Z,24.24
2018-07-03T09:39:57.321Z,24.30
2018-07-03T09:40:56.586Z,24.29
2018-07-03T09:41:56.767Z,24.37
2018-07-03T09:42:56.811Z,24.45
2018-07-03T09:43:56.544Z,24.41
2018-07-03T09:44:57.057Z,24.49
2018-07-03T09:45:57.132Z,24.37
2018-07-03T09:46:57.067Z,24.68
2018-07-03T09:47:57.237Z,24.67
2018-07-03T09:48:57.348Z,24.70
2018-07-03T09:49:56.147Z,24.74
2018-07-03T09:50:56.602Z,24.48
2018-07-03T09:51:56.530Z,24.33
2018-07-03T09:52:56.653Z,24.26
2018-07-03T09:53:56.619Z,24.48
2018-07-03T09:54:57.072Z,24.53
2018-07-03T09:55:57.517Z,24.66
2018-07-03T09:56:56.593Z,24.55
2018-07-03T09:57:57.269Z,24.55
2018-07-03T09:58:57.279Z,24.46
2018-07-03T09:59:57.066Z,24.30
2018-07-03T10:00:56.240Z,24.23
2018-07-03T10:01:56.083Z,24.29
2018-07-03T10:02:57.113Z,24.24
2018-07-03T10:03:56.589Z,24.29
2018-07-03T10:04:57.069Z,24.48
2018-07-03T10:05:57.107Z,24.44
2018-07-03T10:06:56.678Z,24.52
2018-07-03T10:07:57.114Z,24.60
2018-07-03T10:08:56.610Z,24.84
2018-07-03T10:09:56.911Z,24.71
2018-07-03T10:10:57.077Z,24.51
2018-07-03T10:11:57.402Z,24.42
2018-07-03T10:12:57.111Z,24.31
2018-07-03T10:13:57.288Z,24.33
2018-07-03T10:14:56.934Z,24.53
2018-07-03T10:15:56.171Z,24.53
2018-07-03T10:16:56.548Z,24.63
2018-07-03T10:17:56.653Z,24.82
2018-07-03T10:18:57.287Z,25.04
2018-07-03T10:19:56.646Z,25.31
2018-07-03T10:20:56.850Z,25.34
2018-07-03T10:21:56.636Z,25.39
2018-07-03T10:22:56.827Z,25.39
2018-07-03T10:23:56.644Z,25.24
2018-07-03T10:24:56.632Z,25.26
2018-07-03T10:25:57.111Z,25.31
2018-07-03T10:26:56.815Z,25.11
2018-07-03T10:27:56.658Z,25.19
2018-07-03T10:28:56.619Z,25.35
2018-07-03T10:29:56.670Z,25.23
2018-07-03T10:30:57.298Z,25.11
2018-07-03T10:31:57.081Z,25.17
2018-07-03T10:32:56.578Z,25.35
2018-07-03T10:33:56.634Z,25.27
2018-07-03T10:34:57.386Z,25.23
2018-07-03T10:35:56.875Z,25.24
2018-07-03T10:36:57.097Z,25.39
2018-07-03T10:37:57.085Z,25.34
2018-07-03T10:38:57.098Z,25.45
2018-07-03T10:39:57.075Z,25.35
2018-07-03T10:40:56.618Z,25.48
2018-07-03T10:41:56.730Z,25.56
2018-07-03T10:42:56.477Z,25.46
2018-07-03T10:43:56.609Z,25.48
2018-07-03T10:44:56.636Z,25.45
2018-07-03T10:45:57.108Z,25.66
2018-07-03T10:46:56.718Z,25.81
2018-07-03T10:47:58.116Z,26.06
2018-07-03T10:48:56.679Z,26.06
2018-07-03T10:49:57.247Z,26.03
2018-07-03T10:50:56.246Z,25.78
2018-07-03T10:51:56.597Z,25.66
2018-07-03T10:52:56.635Z,25.63
2018-07-03T10:53:57.104Z,25.81
2018-07-03T10:54:56.250Z,25.75
2018-07-03T10:55:56.513Z,25.93
2018-07-03T10:56:56.617Z,25.86
2018-07-03T10:57:56.723Z,25.85
2018-07-03T10:58:56.156Z,25.79
2018-07-03T10:59:56.674Z,25.81
2018-07-03T11:00:57.106Z,25.81
2018-07-03T11:01:56.703Z,25.67
2018-07-03T11:02:57.091Z,25.90
2018-07-03T11:03:56.722Z,25.79
2018-07-03T11:04:57.103Z,25.97
2018-07-03T11:05:58.591Z,26.04
2018-07-03T11:06:56.576Z,26.12
2018-07-03T11:07:58.084Z,26.35
2018-07-03T11:08:56.951Z,26.61
2018-07-03T11:09:56.249Z,26.69
2018-07-03T11:10:56.984Z,26.76
2018-07-03T11:11:56.264Z,26.83
2018-07-03T11:12:57.564Z,26.81
2018-07-03T11:13:56.910Z,26.76
2018-07-03T11:14:56.611Z,26.87
2018-07-03T11:15:56.684Z,27.06
2018-07-03T11:16:56.729Z,27.13
2018-07-03T11:17:57.030Z,27.16
2018-07-03T11:18:56.879Z,27.01
2018-07-03T11:19:56.965Z,26.98
2018-07-03T11:20:56.419Z,26.88
2018-07-03T11:21:57.182Z,26.98
2018-07-03T11:22:56.291Z,27.01
2018-07-03T11:23:57.075Z,27.09
2018-07-03T11:24:56.856Z,27.03
2018-07-03T11:25:56.654Z,26.96
2018-07-03T11:26:57.365Z,27.03
2018-07-03T11:27:57.172Z,27.13
2018-07-03T11:28:56.716Z,27.39
2018-07-03T11:29:57.084Z,27.52
2018-07-03T11:30:56.591Z,27.48
2018-07-03T11:31:56.826Z,27.52
2018-07-03T11:32:57.289Z,27.53
2018-07-03T11:33:56.285Z,27.58
2018-07-03T11:34:57.164Z,27.80
2018-07-03T11:35:57.131Z,27.83
2018-07-03T11:36:56.638Z,27.72
2018-07-03T11:37:57.194Z,27.69
2018-07-03T11:38:56.381Z,27.80
2018-07-03T11:39:57.181Z,27.84
2018-07-03T11:40:57.124Z,27.76
2018-07-03T11:41:57.161Z,27.91
2018-07-03T11:42:56.783Z,27.96
2018-07-03T11:43:56.805Z,27.98
2018-07-03T11:44:57.005Z,28.03
2018-07-03T11:45:57.083Z,28.08
2018-07-03T11:46:56.893Z,28.09
2018-07-03T11:47:56.382Z,28.14
2018-07-03T11:48:57.116Z,28.46
2018-07-03T11:49:57.337Z,28.38
2018-07-03T11:50:57.654Z,28.17
2018-07-03T11:51:57.296Z,28.02
2018-07-03T11:52:56.506Z,28.17
2018-07-03T11:53:57.325Z,28.39
2018-07-03T11:54:56.845Z,28.55
2018-07-03T11:55:57.333Z,28.69
2018-07-03T11:56:56.832Z,28.70
2018-07-03T11:57:57.373Z,28.95
2018-07-03T11:58:56.952Z,28.61
2018-07-03T11:59:57.096Z,28.57
2018-07-03T12:00:59.342Z,28.65
2018-07-03T12:01:56.853Z,28.79
2018-07-03T12:02:56.841Z,28.87
2018-07-03T12:03:57.558Z,28.57
2018-07-03T12:04:57.201Z,28.51
2018-07-03T12:05:56.833Z,28.54
2018-07-03T12:06:56.545Z,28.54
2018-07-03T12:07:57.134Z,28.77
2018-07-03T12:08:56.814Z,28.88
2018-07-03T12:09:56.902Z,28.85
2018-07-03T12:10:56.880Z,28.87
2018-07-03T12:11:57.338Z,28.91
2018-07-03T12:12:58.671Z,29.12
2018-07-03T12:13:56.975Z,28.98
2018-07-03T12:14:57.342Z,28.94
2018-07-03T12:15:57.359Z,28.70
2018-07-03T12:16:57.348Z,28.76
2018-07-03T12:17:57.232Z,28.88
2018-07-03T12:18:57.391Z,29.17
2018-07-03T12:19:56.914Z,29.33
2018-07-03T12:20:57.238Z,29.30
2018-07-03T12:21:57.627Z,29.29
2018-07-03T12:22:56.853Z,29.33
2018-07-03T12:23:56.532Z,29.54
2018-07-03T12:24:56.849Z,29.51
2018-07-03T12:25:57.069Z,29.51
2018-07-03T12:26:57.676Z,29.51
2018-07-03T12:27:57.162Z,29.29
2018-07-03T12:28:57.439Z,29.55
2018-07-03T12:29:57.162Z,29.48
2018-07-03T12:30:57.116Z,29.26
2018-07-03T12:31:57.657Z,29.39
2018-07-03T12:32:57.108Z,29.63
2018-07-03T12:33:57.195Z,29.71
2018-07-03T12:34:57.185Z,29.64
2018-07-03T12:35:57.496Z,29.48
2018-07-03T12:36:57.639Z,29.15
2018-07-03T12:37:57.084Z,29.48
2018-07-03T12:38:57.234Z,29.64
2018-07-03T12:39:57.422Z,29.73
2018-07-03T12:40:59.199Z,29.76
2018-07-03T12:41:57.196Z,29.82
2018-07-03T12:42:57.396Z,30.01
2018-07-03T12:43:57.376Z,29.99
2018-07-03T12:44:56.770Z,30.34
2018-07-03T12:45:57.273Z,30.18
2018-07-03T12:46:57.245Z,30.36
2018-07-03T12:47:57.641Z,30.54
2018-07-03T12:48:57.653Z,30.67
2018-07-03T12:49:57.155Z,30.91
2018-07-03T12:50:57.109Z,30.94
2018-07-03T12:51:57.119Z,30.78
2018-07-03T12:52:57.136Z,31.10
2018-07-03T12:53:57.204Z,31.45